Terminal Aerodrome Forecast
Issued by NWS

Home | Current Version | Previous Version | Text Only | Print | Product List | Glossary On
Versions: 1 2 3 4 5 6 7 8 9 10 11 12 13 14 15 16 17
000
FTUS44 KLZK 290500
TAFHRO
TAF
KHRO 290538Z 2906/3006 14004KT P6SM SKC
     FM291400 17006KT P6SM VCSH SCT040 BKN110
     FM291900 18009KT 6SM -TSRA SCT030 BKN040CB
      TEMPO 2919/2923 VRB15G25KT 4SM +TSRA BR BKN025CB
     FM300000 16005KT P6SM VCTS SCT030 BKN040CB=

USA.gov is the U.S. government's official web portal to all federal, state and local government web resources and services.